KKLS/KLS METAR and TAF weather

Enter ICAO airport designator
Station Type Date Time Source
KKLS METAR 2019/12/07 04:56 UTC NOAA

KKLS 070456Z AUTO 16004KT 10SM -RA OVC060 07/06 A2983 RMK AO2 SLP106 P0001 T00720056


Station Type Date Time Source
KKLS Decoded METAR 2019/12/07 04:56 UTC NOAA

Kelso, Kelso-Longview Airport, WA, United States (KKLS) 46-07N 122-54W
Dec 06, 2019 - 11:56 PM EST / 2019.12.07 0456 UTC
Wind: from the SSE (160 degrees) at 5 MPH (4 KT):0
Visibility: 10 mile(s):0
Sky conditions: overcast
Weather: light rain
Precipitation last hour: 0.01 inches
Temperature: 45.0 F (7.2 C)
Dew Point: 42.1 F (5.6 C)
Relative Humidity: 89%
Pressure (altimeter): 29.83 in. Hg (1010 hPa)
ob: KKLS 070456Z AUTO 16004KT 10SM -RA OVC060 07/06 A2983 RMK AO2 SLP106 P0001 T00720056
cycle: 5

Station Type Date Time Source
KKLS TAF UTC NOAA

Error!

Example: see airport list